createdAt,value
2017-11-22T00:01:41.131Z,5.20
2017-11-22T00:04:08.676Z,4.75
2017-11-22T00:06:36.187Z,5.68
2017-11-22T00:09:05.111Z,5.75
2017-11-22T00:11:32.612Z,4.95
2017-11-22T00:14:00.133Z,6.45
2017-11-22T00:16:27.616Z,5.20
2017-11-22T00:18:55.109Z,5.97
2017-11-22T00:21:22.634Z,5.95
2017-11-22T00:23:50.124Z,6.32
2017-11-22T00:26:17.631Z,5.57
2017-11-22T00:28:45.120Z,6.25
2017-11-22T00:31:12.749Z,4.85
2017-11-22T00:33:40.221Z,5.75
2017-11-22T00:36:07.728Z,5.55
2017-11-22T00:38:35.616Z,5.32
2017-11-22T00:41:03.133Z,5.95
2017-11-22T00:43:31.561Z,5.35
2017-11-22T00:45:59.092Z,6.12
2017-11-22T00:48:26.556Z,4.50
2017-11-22T00:50:54.465Z,5.55
2017-11-22T00:53:21.941Z,5.18
2017-11-22T00:55:49.421Z,5.32
2017-11-22T00:58:16.926Z,5.32
2017-11-22T01:00:44.416Z,4.60
2017-11-22T01:03:11.911Z,5.43
2017-11-22T01:05:39.787Z,3.75
2017-11-22T01:08:07.312Z,4.68
2017-11-22T01:10:34.796Z,5.55
2017-11-22T01:13:02.676Z,5.03
2017-11-22T01:15:30.187Z,5.40
2017-11-22T01:17:57.695Z,5.10
2017-11-22T01:20:25.193Z,4.50
2017-11-22T01:22:52.692Z,4.40
2017-11-22T01:25:20.568Z,3.80
2017-11-22T01:27:48.450Z,5.03
2017-11-22T01:30:15.946Z,5.05
2017-11-22T01:32:43.459Z,4.50
2017-11-22T01:35:10.964Z,4.78
2017-11-22T01:37:40.422Z,3.97
2017-11-22T01:40:07.902Z,4.32
2017-11-22T01:42:35.384Z,4.82
2017-11-22T01:45:02.880Z,4.60
2017-11-22T01:47:30.406Z,3.92
2017-11-22T01:49:57.896Z,4.20
2017-11-22T01:52:25.780Z,4.05
2017-11-22T01:54:53.283Z,3.92
2017-11-22T01:57:20.765Z,5.60
2017-11-22T01:59:48.664Z,3.75
2017-11-22T02:02:16.158Z,4.10
2017-11-22T02:04:45.608Z,4.72
2017-11-22T02:07:14.428Z,4.57
2017-11-22T02:09:41.937Z,3.42
2017-11-22T02:12:09.427Z,3.87
2017-11-22T02:14:36.933Z,3.97
2017-11-22T02:17:04.421Z,4.12
2017-11-22T02:19:32.295Z,4.28
2017-11-22T02:21:59.816Z,3.62
2017-11-22T02:24:27.299Z,4.28
2017-11-22T02:26:54.819Z,3.67
2017-11-22T02:29:22.393Z,4.55
2017-11-22T02:31:49.900Z,4.60
2017-11-22T02:34:17.372Z,4.03
2017-11-22T02:36:45.862Z,3.60
2017-11-22T02:39:13.357Z,4.37
2017-11-22T02:41:40.841Z,4.03
2017-11-22T02:44:08.729Z,3.90
2017-11-22T02:46:36.301Z,4.75
2017-11-22T02:49:03.773Z,4.53
2017-11-22T02:51:31.267Z,3.97
2017-11-22T02:53:58.743Z,4.53
2017-11-22T02:56:26.616Z,3.80
2017-11-22T02:58:54.528Z,3.75
2017-11-22T03:01:22.655Z,4.47
2017-11-22T03:03:50.532Z,3.70
2017-11-22T03:06:18.036Z,3.55
2017-11-22T03:08:45.632Z,4.82
2017-11-22T03:11:13.531Z,4.32
2017-11-22T03:13:41.014Z,3.85
2017-11-22T03:16:08.501Z,3.40
2017-11-22T03:18:35.999Z,4.30
2017-11-22T03:21:03.541Z,4.40
2017-11-22T03:23:31.025Z,3.85
2017-11-22T03:25:58.532Z,4.30
2017-11-22T03:28:26.013Z,4.40
2017-11-22T03:30:53.969Z,4.40
2017-11-22T03:33:21.843Z,3.95
2017-11-22T03:35:49.716Z,4.32
2017-11-22T03:38:17.215Z,4.62
2017-11-22T03:40:44.704Z,4.93
2017-11-22T03:43:12.621Z,4.55
2017-11-22T03:45:40.102Z,5.25
2017-11-22T03:48:13.294Z,3.92
2017-11-22T03:50:46.742Z,4.80
2017-11-22T03:53:20.325Z,4.03
2017-11-22T03:55:47.828Z,3.92
2017-11-22T03:58:17.203Z,4.62
2017-11-22T04:00:45.163Z,4.25
2017-11-22T04:03:13.064Z,4.22
2017-11-22T04:05:46.159Z,4.62
2017-11-22T04:08:18.483Z,4.93
2017-11-22T04:10:47.940Z,3.85
2017-11-22T04:13:16.337Z,4.82
2017-11-22T04:15:43.848Z,4.90
2017-11-22T04:18:11.352Z,4.75
2017-11-22T04:20:44.696Z,4.22
2017-11-22T04:23:12.691Z,4.22
2017-11-22T04:25:40.165Z,3.80
2017-11-22T04:28:07.661Z,4.87
2017-11-22T04:30:35.153Z,4.30
2017-11-22T04:33:02.660Z,4.35
2017-11-22T04:35:30.139Z,4.97
2017-11-22T04:37:58.027Z,4.55
2017-11-22T04:40:26.419Z,5.55
2017-11-22T04:42:53.936Z,5.43
2017-11-22T04:45:21.538Z,5.57
2017-11-22T04:47:49.017Z,4.70
2017-11-22T04:50:16.500Z,4.85
2017-11-22T04:52:43.991Z,6.03
2017-11-22T04:55:11.882Z,6.43
2017-11-22T04:57:41.309Z,5.68
2017-11-22T05:00:08.784Z,5.97
2017-11-22T05:02:38.219Z,6.28
2017-11-22T05:05:06.105Z,6.65
2017-11-22T05:07:33.605Z,5.82
2017-11-22T05:10:01.133Z,5.55
2017-11-22T05:12:28.652Z,5.90
2017-11-22T05:14:56.161Z,6.18
2017-11-22T05:17:23.644Z,6.60
2017-11-22T05:19:51.886Z,7.53
2017-11-22T05:22:20.296Z,5.82
2017-11-22T05:24:47.810Z,6.40
2017-11-22T05:27:15.305Z,5.45
2017-11-22T05:29:42.829Z,6.35
2017-11-22T05:32:10.327Z,6.60
2017-11-22T05:34:37.804Z,5.57
2017-11-22T05:37:05.714Z,7.05
2017-11-22T05:39:33.212Z,6.45
2017-11-22T05:42:00.724Z,6.00
2017-11-22T05:44:29.172Z,5.90
2017-11-22T05:46:56.696Z,5.60
2017-11-22T05:49:24.188Z,5.45
2017-11-22T05:51:51.694Z,5.40
2017-11-22T05:54:19.208Z,6.40
2017-11-22T05:56:46.697Z,5.70
2017-11-22T05:59:14.200Z,5.62
2017-11-22T06:01:41.730Z,5.45
2017-11-22T06:04:09.259Z,4.90
2017-11-22T06:06:37.136Z,6.62
2017-11-22T06:09:06.576Z,5.75
2017-11-22T06:11:34.062Z,5.85
2017-11-22T06:14:01.540Z,6.05
2017-11-22T06:16:29.444Z,6.65
2017-11-22T06:18:56.928Z,6.68
2017-11-22T06:21:24.450Z,5.72
2017-11-22T06:23:52.881Z,5.95
2017-11-22T06:26:20.385Z,5.57
2017-11-22T06:28:47.863Z,5.80
2017-11-22T06:31:15.372Z,6.28
2017-11-22T06:33:43.272Z,7.60
2017-11-22T06:36:10.756Z,6.50
2017-11-22T06:38:38.247Z,6.05
2017-11-22T06:41:06.144Z,7.32
2017-11-22T06:43:34.598Z,6.53
2017-11-22T06:46:02.497Z,6.40
2017-11-22T06:48:32.016Z,6.43
2017-11-22T06:50:59.505Z,7.22
2017-11-22T06:53:27.017Z,7.25
2017-11-22T06:55:54.509Z,8.63
2017-11-22T06:58:22.889Z,6.75
2017-11-22T07:00:50.425Z,6.65
2017-11-22T07:03:23.539Z,7.78
2017-11-22T07:05:51.029Z,6.85
2017-11-22T07:08:18.946Z,7.07
2017-11-22T07:10:46.461Z,7.12
2017-11-22T07:13:15.385Z,6.43
2017-11-22T07:15:42.891Z,6.55
2017-11-22T07:18:10.797Z,5.72
2017-11-22T07:20:38.324Z,7.20
2017-11-22T07:23:05.817Z,6.00
2017-11-22T07:25:33.411Z,5.97
2017-11-22T07:28:00.900Z,6.97
2017-11-22T07:30:28.403Z,7.53
2017-11-22T07:32:55.896Z,6.82
2017-11-22T07:35:29.096Z,7.15
2017-11-22T07:38:01.424Z,6.82
2017-11-22T07:40:29.720Z,7.75
2017-11-22T07:42:57.203Z,7.25
2017-11-22T07:45:24.715Z,6.78
2017-11-22T07:47:57.936Z,5.57
2017-11-22T07:50:25.456Z,6.30
2017-11-22T07:52:52.957Z,6.95
2017-11-22T07:55:20.444Z,6.70
2017-11-22T07:57:50.312Z,6.62
2017-11-22T08:00:18.726Z,6.95
2017-11-22T08:02:52.449Z,6.55
2017-11-22T08:05:20.316Z,6.70
2017-11-22T08:07:48.237Z,5.97
2017-11-22T08:10:16.136Z,6.68
2017-11-22T08:12:43.658Z,5.93
2017-11-22T08:15:11.154Z,5.78
2017-11-22T08:17:38.647Z,7.07
2017-11-22T08:20:06.183Z,6.57
2017-11-22T08:22:34.105Z,6.57
2017-11-22T08:25:08.112Z,7.03
2017-11-22T08:27:35.616Z,7.20
2017-11-22T08:30:03.491Z,7.28
2017-11-22T08:32:32.331Z,7.25
2017-11-22T08:34:59.831Z,7.47
2017-11-22T08:37:27.726Z,6.80
2017-11-22T08:39:55.238Z,6.85
2017-11-22T08:42:28.536Z,7.90
2017-11-22T08:44:56.022Z,7.30
2017-11-22T08:47:23.528Z,8.02
2017-11-22T08:49:51.025Z,6.62
2017-11-22T08:52:18.916Z,6.75
2017-11-22T08:54:52.092Z,7.82
2017-11-22T08:57:25.605Z,6.75
2017-11-22T08:59:58.901Z,6.82
2017-11-22T09:02:26.394Z,7.62
2017-11-22T09:04:53.975Z,5.90
2017-11-22T09:07:25.396Z,6.62
2017-11-22T09:09:52.894Z,8.38
2017-11-22T09:12:26.111Z,8.20
2017-11-22T09:14:54.536Z,7.47
2017-11-22T09:17:22.854Z,7.75
2017-11-22T09:19:50.749Z,7.87
2017-11-22T09:22:18.247Z,8.27
2017-11-22T09:24:52.295Z,7.05
2017-11-22T09:27:25.792Z,6.40
2017-11-22T09:29:56.564Z,7.05
2017-11-22T09:32:30.848Z,7.20
2017-11-22T09:35:04.502Z,6.75
2017-11-22T09:37:31.995Z,7.53
2017-11-22T09:39:59.916Z,7.37
2017-11-22T09:42:30.238Z,8.52
2017-11-22T09:44:57.744Z,7.35
2017-11-22T09:47:25.655Z,7.35
2017-11-22T09:49:53.149Z,7.18
2017-11-22T09:52:20.632Z,6.40
2017-11-22T09:54:48.551Z,6.45
2017-11-22T09:57:16.042Z,7.72
2017-11-22T09:59:43.547Z,7.57
2017-11-22T10:02:13.680Z,7.15
2017-11-22T10:04:41.187Z,7.55
2017-11-22T10:07:08.696Z,7.28
2017-11-22T10:09:36.195Z,6.43
2017-11-22T10:12:03.681Z,7.37
2017-11-22T10:14:31.562Z,6.45
2017-11-22T10:17:04.661Z,7.15
2017-11-22T10:19:37.891Z,6.35
2017-11-22T10:22:06.341Z,7.53
2017-11-22T10:24:33.836Z,7.30
2017-11-22T10:27:06.980Z,8.00
2017-11-22T10:29:40.078Z,6.68
2017-11-22T10:32:07.583Z,6.22
2017-11-22T10:34:35.077Z,6.18
2017-11-22T10:37:02.584Z,6.70
2017-11-22T10:39:31.090Z,6.85
2017-11-22T10:41:58.635Z,6.65
2017-11-22T10:44:26.177Z,6.20
2017-11-22T10:46:53.703Z,6.00
2017-11-22T10:49:22.191Z,6.28
2017-11-22T10:51:49.699Z,5.70
2017-11-22T10:54:17.207Z,7.70
2017-11-22T10:56:44.721Z,6.47
2017-11-22T10:59:13.558Z,6.50
2017-11-22T11:01:43.007Z,5.90
2017-11-22T11:04:10.580Z,6.50
2017-11-22T11:06:38.492Z,7.05
2017-11-22T11:09:07.919Z,6.40
2017-11-22T11:11:35.408Z,5.80
2017-11-22T11:14:03.308Z,7.00
2017-11-22T11:16:31.924Z,6.47
2017-11-22T11:18:59.458Z,6.82
2017-11-22T11:21:26.965Z,5.53
2017-11-22T11:23:54.866Z,6.70
2017-11-22T11:26:22.405Z,5.12
2017-11-22T11:28:50.317Z,6.05
2017-11-22T11:31:17.838Z,6.32
2017-11-22T11:33:45.319Z,5.80
2017-11-22T11:36:33.492Z,6.07
2017-11-22T11:39:01.842Z,5.32
2017-11-22T11:41:29.355Z,5.47
2017-11-22T11:43:57.252Z,6.32
2017-11-22T11:46:24.794Z,6.70
2017-11-22T11:48:52.684Z,6.62
2017-11-22T11:51:20.220Z,5.78
2017-11-22T11:53:48.120Z,4.85
2017-11-22T11:56:15.612Z,4.78
2017-11-22T11:58:43.122Z,5.80
2017-11-22T12:01:10.623Z,4.65
2017-11-22T12:03:38.127Z,4.65
2017-11-22T12:06:06.082Z,4.65
2017-11-22T12:08:33.983Z,5.53
2017-11-22T12:11:01.470Z,5.15
2017-11-22T12:13:29.730Z,5.40
2017-11-22T12:15:57.240Z,4.60
2017-11-22T12:18:25.136Z,4.95
2017-11-22T12:20:53.587Z,4.60
2017-11-22T12:23:24.424Z,5.90
2017-11-22T12:25:52.345Z,5.40
2017-11-22T12:28:21.809Z,4.75
2017-11-22T12:30:50.633Z,4.90
2017-11-22T12:33:18.133Z,5.50
2017-11-22T12:35:45.621Z,4.80
2017-11-22T12:38:14.082Z,5.20
2017-11-22T12:40:41.964Z,5.50
2017-11-22T12:43:09.871Z,5.28
2017-11-22T12:45:37.392Z,4.25
2017-11-22T12:48:04.940Z,4.78
2017-11-22T12:50:32.866Z,4.55
2017-11-22T12:53:00.392Z,4.75
2017-11-22T12:55:28.839Z,4.87
2017-11-22T12:58:00.659Z,4.70
2017-11-22T13:00:28.131Z,4.62
2017-11-22T13:02:55.672Z,4.68
2017-11-22T13:05:24.105Z,4.57
2017-11-22T13:07:52.003Z,4.05
2017-11-22T13:10:19.600Z,4.65
2017-11-22T13:12:47.112Z,4.10
2017-11-22T13:15:15.636Z,4.62
2017-11-22T13:17:43.141Z,4.25
2017-11-22T13:20:11.044Z,4.40
2017-11-22T13:22:38.544Z,4.22
2017-11-22T13:25:06.052Z,4.55
2017-11-22T13:27:34.517Z,4.37
2017-11-22T13:30:02.049Z,4.28
2017-11-22T13:32:35.377Z,4.43
2017-11-22T13:35:02.907Z,4.60
2017-11-22T13:37:30.804Z,3.97
2017-11-22T13:39:58.283Z,3.80
2017-11-22T13:42:25.793Z,4.07
2017-11-22T13:44:53.432Z,3.70
2017-11-22T13:47:21.324Z,4.18
2017-11-22T13:49:49.237Z,3.90
2017-11-22T13:52:16.727Z,3.53
2017-11-22T13:54:44.245Z,3.58
2017-11-22T13:57:11.806Z,3.25
2017-11-22T13:59:39.312Z,4.10
2017-11-22T14:02:07.225Z,4.10
2017-11-22T14:04:34.721Z,3.55
2017-11-22T14:07:02.228Z,3.80
2017-11-22T14:09:29.803Z,3.92
2017-11-22T14:11:57.288Z,3.42
2017-11-22T14:14:24.798Z,3.65
2017-11-22T14:16:52.290Z,3.53
2017-11-22T14:19:19.788Z,3.10
2017-11-22T14:21:47.697Z,3.95
2017-11-22T14:24:15.217Z,3.20
2017-11-22T14:26:44.558Z,3.65
2017-11-22T14:29:12.079Z,4.28
2017-11-22T14:31:39.608Z,2.95
2017-11-22T14:34:07.104Z,2.72
2017-11-22T14:36:34.644Z,3.50
2017-11-22T14:39:03.152Z,3.35
2017-11-22T14:41:30.670Z,3.17
2017-11-22T14:43:58.175Z,2.75
2017-11-22T14:46:25.712Z,4.35
2017-11-22T14:48:53.604Z,3.17
2017-11-22T14:51:21.115Z,3.00
2017-11-22T14:53:49.233Z,3.35
2017-11-22T14:56:16.742Z,3.22
2017-11-22T14:58:44.425Z,3.50
2017-11-22T15:01:12.316Z,2.97
2017-11-22T15:03:39.908Z,2.75
2017-11-22T15:06:07.443Z,2.90
2017-11-22T15:08:34.937Z,2.92
2017-11-22T15:11:02.448Z,2.83
2017-11-22T15:13:29.941Z,2.50
2017-11-22T15:15:59.400Z,2.72
2017-11-22T15:18:28.219Z,3.60
2017-11-22T15:20:55.723Z,3.67
2017-11-22T15:23:23.286Z,3.45
2017-11-22T15:25:52.719Z,3.30
2017-11-22T15:28:20.204Z,2.35
2017-11-22T15:30:47.692Z,2.90
2017-11-22T15:33:15.215Z,2.70
2017-11-22T15:35:42.702Z,2.78
2017-11-22T15:38:10.205Z,2.22
2017-11-22T15:40:37.691Z,3.20
2017-11-22T15:43:05.237Z,3.15
2017-11-22T15:45:32.740Z,3.15
2017-11-22T15:48:00.293Z,2.80
2017-11-22T15:50:27.782Z,2.70
2017-11-22T15:52:55.346Z,3.78
2017-11-22T15:55:23.225Z,2.95
2017-11-22T15:57:51.097Z,3.50
2017-11-22T16:00:18.604Z,2.67
2017-11-22T16:02:46.086Z,2.55
2017-11-22T16:05:13.979Z,2.45
2017-11-22T16:07:41.456Z,2.65
2017-11-22T16:10:08.953Z,2.53
2017-11-22T16:12:36.524Z,2.60
2017-11-22T16:15:04.028Z,2.45
2017-11-22T16:17:31.551Z,3.25
2017-11-22T16:19:59.450Z,3.20
2017-11-22T16:22:26.956Z,3.22
2017-11-22T16:24:55.047Z,3.00
2017-11-22T16:27:22.950Z,2.90
2017-11-22T16:29:52.411Z,2.70
2017-11-22T16:32:20.289Z,3.58
2017-11-22T16:34:48.200Z,3.50
2017-11-22T16:37:15.684Z,3.33
2017-11-22T16:39:45.180Z,3.70
2017-11-22T16:42:12.667Z,3.25
2017-11-22T16:44:40.176Z,3.75
2017-11-22T16:47:07.680Z,4.45
2017-11-22T16:49:35.164Z,3.37
2017-11-22T16:52:02.659Z,3.45
2017-11-22T16:54:30.138Z,3.45
2017-11-22T16:56:57.637Z,2.90
2017-11-22T16:59:25.557Z,4.40
2017-11-22T17:01:54.862Z,4.28
2017-11-22T17:04:22.363Z,4.78
2017-11-22T17:06:52.660Z,4.22
2017-11-22T17:09:20.141Z,3.50
2017-11-22T17:11:48.040Z,4.50
2017-11-22T17:14:15.539Z,4.65
2017-11-22T17:16:43.077Z,5.15
2017-11-22T17:19:10.595Z,5.50
2017-11-22T17:21:38.101Z,5.75
2017-11-22T17:24:05.580Z,5.55
2017-11-22T17:26:33.076Z,7.18
2017-11-22T17:29:00.552Z,5.93
2017-11-22T17:31:29.976Z,6.75
2017-11-22T17:33:57.464Z,5.90
2017-11-22T17:36:25.391Z,5.28
2017-11-22T17:38:52.876Z,4.93
2017-11-22T17:41:20.375Z,3.70
2017-11-22T17:43:47.849Z,3.25
2017-11-22T17:46:15.354Z,3.75
2017-11-22T17:48:42.828Z,3.65
2017-11-22T17:51:10.729Z,4.22
2017-11-22T17:53:38.208Z,4.25
2017-11-22T17:56:06.623Z,4.20
2017-11-22T17:58:34.128Z,3.65
2017-11-22T18:01:01.639Z,3.40
2017-11-22T18:03:29.542Z,3.45
2017-11-22T18:05:57.076Z,3.70
2017-11-22T18:08:24.992Z,2.60
2017-11-22T18:10:52.492Z,2.92
2017-11-22T18:13:20.014Z,3.58
2017-11-22T18:15:47.553Z,2.60
2017-11-22T18:18:15.044Z,3.15
2017-11-22T18:20:43.528Z,1.95
2017-11-22T18:23:11.019Z,3.08
2017-11-22T18:25:38.900Z,2.65
2017-11-22T18:28:06.425Z,3.15
2017-11-22T18:30:34.049Z,2.83
2017-11-22T18:33:01.609Z,3.40
2017-11-22T18:35:29.114Z,2.80
2017-11-22T18:37:58.967Z,3.12
2017-11-22T18:40:26.488Z,2.70
2017-11-22T18:42:54.405Z,3.50
2017-11-22T18:45:21.944Z,3.75
2017-11-22T18:47:49.485Z,3.45
2017-11-22T18:50:17.374Z,3.20
2017-11-22T18:52:44.873Z,2.00
2017-11-22T18:55:12.382Z,2.80
2017-11-22T18:57:39.869Z,3.35
2017-11-22T19:00:07.392Z,4.12
2017-11-22T19:02:34.875Z,3.62
2017-11-22T19:05:03.320Z,4.05
2017-11-22T19:07:31.207Z,4.68
2017-11-22T19:09:58.688Z,4.25
2017-11-22T19:12:26.196Z,4.28
2017-11-22T19:14:54.068Z,6.68
2017-11-22T19:17:21.966Z,6.70
2017-11-22T19:19:49.451Z,6.62
2017-11-22T19:22:16.941Z,4.90
2017-11-22T19:24:44.815Z,4.15
2017-11-22T19:27:12.698Z,4.72
2017-11-22T19:29:40.200Z,3.78
2017-11-22T19:32:07.676Z,3.80
2017-11-22T19:34:35.175Z,3.60
2017-11-22T19:37:03.611Z,4.65
2017-11-22T19:39:31.111Z,6.82
2017-11-22T19:41:58.608Z,7.03
2017-11-22T19:44:26.134Z,5.45
2017-11-22T19:46:53.631Z,3.80
2017-11-22T19:49:21.127Z,4.05
2017-11-22T19:51:49.016Z,5.47
2017-11-22T19:54:16.488Z,6.30
2017-11-22T19:56:43.989Z,6.28
2017-11-22T19:59:11.485Z,6.60
2017-11-22T20:01:38.965Z,4.50
2017-11-22T20:04:06.465Z,3.87
2017-11-22T20:06:33.949Z,3.83
2017-11-22T20:09:02.637Z,3.15
2017-11-22T20:11:30.533Z,2.67
2017-11-22T20:13:58.047Z,2.58
2017-11-22T20:16:25.942Z,3.55
2017-11-22T20:18:55.393Z,3.55
2017-11-22T20:21:22.878Z,3.40
2017-11-22T20:23:50.765Z,4.10
2017-11-22T20:26:18.240Z,3.40
2017-11-22T20:28:45.723Z,2.92
2017-11-22T20:31:13.220Z,2.25
2017-11-22T20:33:41.115Z,3.10
2017-11-22T20:36:09.559Z,2.60
2017-11-22T20:38:37.112Z,3.75
2017-11-22T20:41:04.600Z,2.67
2017-11-22T20:43:32.464Z,2.40
2017-11-22T20:46:02.310Z,4.50
2017-11-22T20:48:29.796Z,3.20
2017-11-22T20:50:57.312Z,2.78
2017-11-22T20:53:24.910Z,4.20
2017-11-22T20:55:52.388Z,5.55
2017-11-22T20:58:19.893Z,4.68
2017-11-22T21:00:47.376Z,5.75
2017-11-22T21:03:14.884Z,5.15
2017-11-22T21:05:42.779Z,5.20
2017-11-22T21:08:10.248Z,5.20
2017-11-22T21:10:37.743Z,5.28
2017-11-22T21:13:05.228Z,5.82
2017-11-22T21:15:32.719Z,5.35
2017-11-22T21:18:00.196Z,5.32
2017-11-22T21:20:27.692Z,5.22
2017-11-22T21:22:55.581Z,4.90
2017-11-22T21:25:23.078Z,5.30
2017-11-22T21:27:50.574Z,4.87
2017-11-22T21:30:18.452Z,6.60
2017-11-22T21:32:47.884Z,6.50
2017-11-22T21:35:15.374Z,6.32
2017-11-22T21:37:44.825Z,7.85
2017-11-22T21:40:12.336Z,6.80
2017-11-22T21:42:39.858Z,5.93
2017-11-22T21:45:07.378Z,7.57
2017-11-22T21:47:36.004Z,7.00
2017-11-22T21:50:03.497Z,6.12
2017-11-22T21:52:30.972Z,5.05
2017-11-22T21:54:59.757Z,4.75
2017-11-22T21:57:27.648Z,4.40
2017-11-22T21:59:55.162Z,3.85
2017-11-22T22:02:23.589Z,4.18
2017-11-22T22:04:51.069Z,4.30
2017-11-22T22:07:20.636Z,4.65
2017-11-22T22:09:48.522Z,4.05
2017-11-22T22:12:16.404Z,3.37
2017-11-22T22:14:43.904Z,3.53
2017-11-22T22:17:11.388Z,2.70
2017-11-22T22:19:40.192Z,3.58
2017-11-22T22:22:30.133Z,4.03
2017-11-22T22:54:50.511Z,4.18
2017-11-22T22:57:18.079Z,2.53
2017-11-22T22:59:45.631Z,3.45
2017-11-22T23:02:14.116Z,3.37
2017-11-22T23:04:41.608Z,3.65
2017-11-22T23:07:10.432Z,3.70
2017-11-22T23:09:37.917Z,5.45
2017-11-22T23:12:05.444Z,2.90
2017-11-22T23:14:34.229Z,3.65
2017-11-22T23:17:01.792Z,3.00
2017-11-22T23:19:31.545Z,3.45
2017-11-22T23:22:01.544Z,3.10
2017-11-22T23:24:35.516Z,3.03
2017-11-22T23:27:11.900Z,3.33
2017-11-22T23:29:43.065Z,3.80
2017-11-22T23:32:14.519Z,3.05
2017-11-22T23:34:43.868Z,3.45
2017-11-22T23:37:16.907Z,3.15
2017-11-22T23:39:57.855Z,3.55
2017-11-22T23:42:28.625Z,3.70
2017-11-22T23:47:36.077Z,3.08
2017-11-22T23:50:15.952Z,3.55
2017-11-22T23:52:48.115Z,3.10
2017-11-22T23:55:17.244Z,2.83
2017-11-22T23:57:44.859Z,3.30
